Airfield :
LOGIN :

Register | Disclaimer

   EN    FR    IT 

 










Legend :    VFR   Marginal VFR   IFR   Intensive IFR   Very Intensive IFR
Visi :
Ceiling :
>= 8 km
>= 3000ft
5 to 8 km
1000 to 3000 ft
1500m to 5 km
500 to 1000 ft
800 to 1500m
200 to 500 ft
< 800m
< 200 ft
Symbols :   Thunderstorms  Fog  Heavy snow  Heavy precipitations  Wind > 20 kt
SIGMETs :     Misc.  Thunderstorms  Icing  Turbulence  Mountain Waves  Volcanic Ashes







- Airport Elevation : 1548 ft


LKNA - Náměšť Air Base

CURRENT METAR :
  • 251100Z 14007KT 9999 SCT011 OVC020 13/11 Q1022 NOSIG RMK WHT WHT

EXPIRED METARs :
  • 251000Z 13006KT 8000 BKN010 BKN080 13/10 Q1022 NOSIG RMK GRN GRN
  • 250900Z 14004KT 8000 BKN007 BKN080 12/10 Q1022 NOSIG RMK GRN GRN
  • 250835Z 13004KT 8000 BKN007 BKN080 12/10 Q1022 RMK GRN

TAF TAF LKNA
Valid from the 25 at 06:00 until the 26 at 06:00 UTC


250500Z 2506/2606 VRB02KT 4000 BR SCT005 BKN015
BECMG 2507/2509 16008KT
BECMG 2509/2511 7000 SCT007 BKN020
TEMPO 2506/2516 -RA OVC010
TEMPO 2506/2509 2000 DZ BR BKN003 OVC010
BECMG 2516/2518 9999 SCT025
No reported NOTAMs for that airfield.



MET'MAP, your aeronautical weather chart ! - Copyright ORBIFLY December 2007 - Disclaimer

ORBIFLY MET'MAP TEAM :

Programming & Development : Alexandra Zaïnal
Concept & Development : Baudouin d'Aumeries
Co-Development & Prog : Marc-Olivier Méhu
Technical & hardware support : Manuel Goepfert

Contact : metmap@orbifly.com




SOURCES & CREDITS :

   NOAA